Time;durP1;ratioP1;P1;durP2;ratioP2;P2;SDS_P1;SDS_P2;PMS_P1;PMS_P2;Temp;Humidity;BMP_temperature;BMP_pressure;BME280_temperature;BME280_humidity;BME280_pressure;Samples;Min_cycle;Max_cycle;Signal;HPM_P1;HPM_P2
2023/07/05 00:01:13;;;;;;;13.88;7.25;;;13.80;99.90;;;;;;5110792;27;20102;-39
2023/07/05 00:03:40;;;;;;;11.63;7.85;;;13.80;99.90;;;;;;5114536;27;20524;-40
2023/07/05 00:06:06;;;;;;;11.68;7.30;;;13.70;99.90;;;;;;5108349;27;20056;-39
2023/07/05 00:08:33;;;;;;;12.77;7.10;;;13.80;99.90;;;;;;5115087;27;20038;-39
2023/07/05 00:11:07;;;;;;;12.32;7.40;;;13.70;99.90;;;;;;5108817;27;20046;-39
2023/07/05 00:13:33;;;;;;;12.52;7.65;;;13.70;99.90;;;;;;5114354;27;20469;-39
2023/07/05 00:15:59;;;;;;;16.30;9.07;;;13.80;99.90;;;;;;5110906;27;20035;-39
2023/07/05 00:18:26;;;;;;;12.85;8.52;;;13.80;99.90;;;;;;5113164;27;20097;-39
2023/07/05 00:20:52;;;;;;;16.05;7.88;;;13.70;99.90;;;;;;5093205;28;20733;-39
2023/07/05 00:23:18;;;;;;;12.25;7.50;;;13.80;99.90;;;;;;5092610;27;20059;-40
2023/07/05 00:25:44;;;;;;;12.23;8.43;;;13.80;99.90;;;;;;5112775;27;20125;-39
2023/07/05 00:28:09;;;;;;;16.65;8.00;;;13.80;99.90;;;;;;5114256;27;22060;-39
2023/07/05 00:30:35;;;;;;;12.27;7.75;;;13.80;99.90;;;;;;5115181;27;20813;-39
2023/07/05 00:33:00;;;;;;;10.20;6.93;;;13.80;99.90;;;;;;5115997;27;20515;-39
2023/07/05 00:35:26;;;;;;;12.68;8.02;;;13.80;99.90;;;;;;5089539;27;20058;-39
2023/07/05 00:37:52;;;;;;;12.50;7.95;;;13.80;99.90;;;;;;5115144;27;20051;-39
2023/07/05 00:40:18;;;;;;;12.32;8.05;;;13.80;99.90;;;;;;5115361;27;20047;-39
2023/07/05 00:42:44;;;;;;;13.57;8.10;;;13.80;99.90;;;;;;5113108;27;20371;-39
2023/07/05 00:45:10;;;;;;;14.30;8.70;;;13.90;99.90;;;;;;5114532;27;20058;-39
2023/07/05 00:47:38;;;;;;;19.88;8.95;;;13.90;99.90;;;;;;5097377;27;20081;-39
2023/07/05 00:50:21;;;;;;;13.85;8.05;;;13.90;99.90;;;;;;5116646;27;20103;-39
2023/07/05 00:52:47;;;;;;;11.68;7.97;;;13.90;99.90;;;;;;5116543;27;20039;-39
2023/07/05 00:55:14;;;;;;;15.27;8.30;;;13.90;99.90;;;;;;5114012;27;20463;-39
2023/07/05 00:57:39;;;;;;;11.77;9.02;;;13.90;99.90;;;;;;5096202;27;20043;-39
2023/07/05 01:00:12;;;;;;;15.20;8.23;;;14.00;99.90;;;;;;5114141;27;20043;-39
2023/07/05 01:02:40;;;;;;;13.93;8.13;;;14.00;99.90;;;;;;5113067;27;20055;-39
2023/07/05 01:05:09;;;;;;;14.13;7.63;;;14.00;99.90;;;;;;5114522;27;20073;-39
2023/07/05 01:07:34;;;;;;;16.33;10.52;;;14.00;99.90;;;;;;5092451;27;20497;-39
2023/07/05 01:10:00;;;;;;;14.63;8.98;;;14.00;99.90;;;;;;5115887;27;20458;-39
2023/07/05 01:12:30;;;;;;;16.20;10.32;;;14.00;99.90;;;;;;5113729;27;20390;-39
2023/07/05 01:15:12;;;;;;;14.77;10.07;;;14.00;99.90;;;;;;5113975;27;20378;-39
2023/07/05 01:18:01;;;;;;;13.38;9.48;;;13.90;99.90;;;;;;5114236;27;20078;-39
2023/07/05 01:21:02;;;;;;;19.10;11.05;;;13.90;99.90;;;;;;5094517;27;20138;-39
2023/07/05 01:23:39;;;;;;;16.23;10.90;;;14.00;99.90;;;;;;5115123;27;20386;-39
2023/07/05 01:26:30;;;;;;;17.92;11.77;;;13.90;99.90;;;;;;5112018;27;20381;-40
2023/07/05 01:29:20;;;;;;;22.13;11.70;;;13.90;99.90;;;;;;5114286;27;20043;-39
2023/07/05 01:31:51;;;;;;;18.67;12.70;;;13.90;99.90;;;;;;5112435;27;20519;-40
2023/07/05 01:34:54;;;;;;;23.23;12.55;;;13.80;99.90;;;;;;5113759;27;20121;-44
2023/07/05 01:37:26;;;;;;;20.52;12.43;;;13.80;99.90;;;;;;5092468;27;20395;-40
2023/07/05 01:39:52;;;;;;;16.52;11.80;;;13.80;99.90;;;;;;5115847;27;20503;-42
2023/07/05 01:42:20;;;;;;;16.50;12.80;;;13.70;99.90;;;;;;5112838;27;20040;-41
2023/07/05 01:44:46;;;;;;;17.80;13.30;;;13.70;99.90;;;;;;5112744;27;20061;-42
2023/07/05 01:47:16;;;;;;;20.38;12.80;;;13.70;99.90;;;;;;5112884;27;20787;-41
2023/07/05 01:50:05;;;;;;;18.23;12.85;;;13.70;99.90;;;;;;5118868;27;20054;-42
2023/07/05 01:52:46;;;;;;;18.15;14.07;;;13.70;99.90;;;;;;5093189;27;20047;-41
2023/07/05 01:55:38;;;;;;;19.95;14.18;;;13.80;99.90;;;;;;5113042;27;20047;-41
2023/07/05 01:58:10;;;;;;;17.13;13.85;;;13.80;99.90;;;;;;5110787;27;20047;-42
2023/07/05 02:00:38;;;;;;;19.85;14.27;;;13.70;99.90;;;;;;5108546;27;20561;-42
2023/07/05 02:03:09;;;;;;;19.35;15.15;;;13.70;99.90;;;;;;5115014;27;20046;-42
2023/07/05 02:05:37;;;;;;;17.50;14.55;;;13.70;99.90;;;;;;5129846;27;20047;-42
2023/07/05 02:08:02;;;;;;;19.48;14.85;;;13.80;99.90;;;;;;5114956;27;20059;-42
2023/07/05 02:10:28;;;;;;;20.00;14.30;;;13.80;99.90;;;;;;5115626;27;20519;-43
2023/07/05 02:12:55;;;;;;;22.10;15.27;;;13.80;99.90;;;;;;5127832;27;20145;-42
2023/07/05 02:15:22;;;;;;;22.15;15.90;;;13.80;99.90;;;;;;5137202;27;20834;-43
2023/07/05 02:17:47;;;;;;;22.52;15.98;;;13.80;99.90;;;;;;5137088;27;20144;-42
2023/07/05 02:20:13;;;;;;;21.95;15.07;;;13.70;99.90;;;;;;5136129;27;20042;-42
2023/07/05 02:22:39;;;;;;;22.38;15.35;;;13.80;99.90;;;;;;5136534;27;20058;-43
2023/07/05 02:25:05;;;;;;;19.33;14.55;;;13.70;99.90;;;;;;5135379;27;20057;-41
2023/07/05 02:27:31;;;;;;;21.02;16.42;;;13.80;99.90;;;;;;5136514;27;20129;-42
2023/07/05 02:29:57;;;;;;;20.75;15.98;;;13.80;99.90;;;;;;5089992;27;20047;-43
2023/07/05 02:32:24;;;;;;;20.67;16.33;;;13.70;99.90;;;;;;5136289;27;20055;-43
2023/07/05 02:34:50;;;;;;;21.75;17.60;;;13.70;99.90;;;;;;5117695;27;20117;-43
2023/07/05 02:37:16;;;;;;;23.52;17.58;;;13.80;99.90;;;;;;5094809;27;20564;-43
2023/07/05 02:39:42;;;;;;;22.50;18.92;;;13.70;99.90;;;;;;5129251;27;20051;-41
2023/07/05 02:42:08;;;;;;;26.08;17.30;;;13.80;99.90;;;;;;5116420;27;20047;-43
2023/07/05 02:44:34;;;;;;;33.35;22.20;;;13.70;99.90;;;;;;5103975;27;20047;-45
2023/07/05 02:47:01;;;;;;;33.20;20.90;;;13.70;99.90;;;;;;5114464;27;20047;-45
2023/07/05 02:49:26;;;;;;;29.83;21.70;;;13.70;99.90;;;;;;5114279;27;20513;-43
2023/07/05 02:51:53;;;;;;;29.77;21.65;;;13.70;99.90;;;;;;5096054;27;20112;-42
2023/07/05 02:54:19;;;;;;;26.38;20.98;;;13.70;99.90;;;;;;5115576;27;20122;-44
2023/07/05 02:56:45;;;;;;;29.25;22.55;;;13.70;99.90;;;;;;5114695;27;20462;-44
2023/07/05 02:59:11;;;;;;;28.90;21.92;;;13.80;99.90;;;;;;5096347;27;20655;-42
2023/07/05 03:01:36;;;;;;;29.20;24.08;;;13.80;99.90;;;;;;5096408;27;20039;-43
2023/07/05 03:04:02;;;;;;;30.23;24.60;;;13.70;99.90;;;;;;5095702;27;20569;-45
2023/07/05 03:06:28;;;;;;;33.35;23.00;;;13.80;99.90;;;;;;5113679;27;20039;-41
2023/07/05 03:08:53;;;;;;;36.90;26.50;;;13.80;99.90;;;;;;5114998;27;20053;-42
2023/07/05 03:11:19;;;;;;;30.30;22.75;;;13.70;99.90;;;;;;5114827;27;20135;-44
2023/07/05 03:13:45;;;;;;;40.40;25.50;;;13.90;99.90;;;;;;5132784;27;20087;-44
2023/07/05 03:16:10;;;;;;;26.52;23.10;;;13.90;99.90;;;;;;5134223;27;20046;-43
2023/07/05 03:18:36;;;;;;;34.03;25.77;;;13.80;99.90;;;;;;5134911;27;20050;-42
2023/07/05 03:21:02;;;;;;;33.15;22.98;;;13.90;99.90;;;;;;5134648;27;20078;-43
2023/07/05 03:23:27;;;;;;;38.92;28.10;;;14.00;99.90;;;;;;5135366;27;20564;-43
2023/07/05 03:26:04;;;;;;;42.70;28.95;;;14.00;99.90;;;;;;5134855;27;20045;-41
2023/07/05 03:28:32;;;;;;;35.00;25.83;;;14.00;99.90;;;;;;5135589;27;20046;-41
2023/07/05 03:31:13;;;;;;;40.55;27.42;;;14.00;99.90;;;;;;5135356;27;20058;-44
2023/07/05 03:33:39;;;;;;;34.22;24.42;;;14.00;99.90;;;;;;5135463;27;20492;-42
2023/07/05 03:36:12;;;;;;;31.42;26.40;;;14.00;99.90;;;;;;5105785;27;20126;-45
2023/07/05 03:38:38;;;;;;;30.45;24.40;;;14.10;99.90;;;;;;5092561;27;20473;-47
2023/07/05 03:41:10;;;;;;;31.25;25.15;;;14.10;99.90;;;;;;5113808;27;20081;-42
2023/07/05 03:43:37;;;;;;;26.60;22.30;;;14.20;99.90;;;;;;5105588;27;20443;-46
2023/07/05 03:46:07;;;;;;;30.13;24.08;;;14.10;99.90;;;;;;5126817;27;20308;-45
2023/07/05 03:48:36;;;;;;;32.15;22.88;;;14.30;99.90;;;;;;5135534;27;20457;-44
2023/07/05 03:51:02;;;;;;;29.45;24.65;;;14.30;99.90;;;;;;5134540;27;20507;-47
2023/07/05 03:53:28;;;;;;;30.80;23.58;;;14.20;99.90;;;;;;5099245;27;20052;-48
2023/07/05 03:55:54;;;;;;;29.20;24.17;;;14.20;99.90;;;;;;5134126;27;20034;-43
2023/07/05 03:58:20;;;;;;;30.60;24.60;;;14.30;99.90;;;;;;5135064;27;20050;-44
2023/07/05 04:00:46;;;;;;;32.67;26.45;;;14.30;99.90;;;;;;5127198;27;20089;-45
2023/07/05 04:03:12;;;;;;;30.95;24.48;;;14.20;99.90;;;;;;5112126;27;20518;-43
2023/07/05 04:05:39;;;;;;;26.05;22.20;;;14.20;99.90;;;;;;5111170;27;20193;-47
2023/07/05 04:08:04;;;;;;;24.38;21.70;;;14.30;99.90;;;;;;5095729;28;20581;-42
2023/07/05 04:10:30;;;;;;;29.10;20.92;;;14.30;99.90;;;;;;5113571;27;20462;-43
2023/07/05 04:12:56;;;;;;;20.38;17.63;;;14.20;99.90;;;;;;5125190;27;20074;-44
2023/07/05 04:15:21;;;;;;;22.23;18.85;;;14.40;99.90;;;;;;5134250;27;20209;-45
2023/07/05 04:17:47;;;;;;;21.30;17.65;;;14.20;99.90;;;;;;5134734;27;20043;-45
2023/07/05 04:20:13;;;;;;;15.60;12.77;;;14.30;99.90;;;;;;5133681;27;20053;-45
2023/07/05 04:22:40;;;;;;;17.15;11.57;;;14.40;99.90;;;;;;5134664;27;20937;-44
2023/07/05 04:25:07;;;;;;;11.80;8.85;;;14.40;99.90;;;;;;5133332;27;20134;-45
2023/07/05 04:27:33;;;;;;;10.07;7.00;;;14.50;99.90;;;;;;5133921;27;20047;-43
2023/07/05 04:29:58;;;;;;;9.80;5.95;;;14.40;99.90;;;;;;5133794;27;20039;-43
2023/07/05 04:32:24;;;;;;;9.93;5.97;;;14.30;99.90;;;;;;5135274;27;20042;-48
2023/07/05 04:34:50;;;;;;;10.68;5.57;;;14.30;99.90;;;;;;5116451;27;20552;-42
2023/07/05 04:37:16;;;;;;;7.57;5.53;;;14.20;99.90;;;;;;5111643;27;20055;-45
2023/07/05 04:39:42;;;;;;;6.93;6.07;;;14.20;99.90;;;;;;5110383;27;20047;-46
2023/07/05 04:42:08;;;;;;;10.40;7.47;;;14.10;99.90;;;;;;5094872;28;20065;-43
2023/07/05 04:44:34;;;;;;;8.13;6.35;;;14.20;99.90;;;;;;5129891;27;20039;-45
2023/07/05 04:47:00;;;;;;;9.95;6.45;;;14.10;99.90;;;;;;5124054;27;20039;-45
2023/07/05 04:49:25;;;;;;;13.93;7.78;;;14.20;99.90;;;;;;5131640;27;20382;-43
2023/07/05 04:51:51;;;;;;;9.85;6.80;;;14.20;99.90;;;;;;5115945;27;20061;-44
2023/07/05 04:54:17;;;;;;;10.27;7.47;;;14.20;99.90;;;;;;5130924;27;20043;-45
2023/07/05 04:56:43;;;;;;;9.40;7.38;;;14.10;99.90;;;;;;5113629;27;20053;-42
2023/07/05 04:59:10;;;;;;;10.70;7.38;;;14.00;99.90;;;;;;5113452;27;20104;-41
2023/07/05 05:01:37;;;;;;;9.63;6.65;;;14.00;99.90;;;;;;5113392;27;20055;-45
2023/07/05 05:04:03;;;;;;;10.13;6.85;;;14.00;99.90;;;;;;5113285;27;20512;-46
2023/07/05 05:06:28;;;;;;;10.15;7.35;;;13.90;99.90;;;;;;5113294;27;20047;-45
2023/07/05 05:08:54;;;;;;;10.50;7.60;;;13.90;99.90;;;;;;5113311;27;20047;-45
2023/07/05 05:11:20;;;;;;;11.00;7.85;;;13.80;99.90;;;;;;5113727;27;20135;-44
2023/07/05 05:13:46;;;;;;;9.95;7.47;;;13.80;99.90;;;;;;5120989;27;20049;-45
2023/07/05 05:16:11;;;;;;;9.15;7.63;;;13.80;99.90;;;;;;5097363;27;20590;-44
2023/07/05 05:18:37;;;;;;;10.32;7.97;;;13.80;99.90;;;;;;5133249;27;20396;-45
2023/07/05 05:21:03;;;;;;;11.80;8.02;;;13.80;99.90;;;;;;5137971;27;20127;-44
2023/07/05 05:23:29;;;;;;;9.77;8.77;;;13.80;99.90;;;;;;5138032;27;20055;-43
2023/07/05 05:25:55;;;;;;;9.93;8.82;;;13.70;99.90;;;;;;5137100;27;20165;-41
2023/07/05 05:28:22;;;;;;;9.75;8.63;;;13.70;99.90;;;;;;5138406;27;20107;-43
2023/07/05 05:30:49;;;;;;;11.57;8.88;;;13.70;99.90;;;;;;5118702;27;20058;-43
2023/07/05 05:33:16;;;;;;;11.38;8.57;;;13.70;99.90;;;;;;5137826;27;20081;-44
2023/07/05 05:35:51;;;;;;;8.57;7.55;;;13.70;99.90;;;;;;5111161;27;20151;-43
2023/07/05 05:38:18;;;;;;;10.27;8.07;;;13.80;99.90;;;;;;5099701;27;20050;-43
2023/07/05 05:40:45;;;;;;;10.60;7.22;;;13.90;99.90;;;;;;5124739;27;20051;-44
2023/07/05 05:43:11;;;;;;;8.90;8.05;;;14.00;99.90;;;;;;5111348;27;20090;-42
2023/07/05 05:45:36;;;;;;;9.15;7.63;;;14.00;99.90;;;;;;5108349;27;20042;-45
2023/07/05 05:48:02;;;;;;;11.38;8.10;;;13.90;99.90;;;;;;5116294;27;20579;-41
2023/07/05 05:50:27;;;;;;;9.65;7.78;;;13.80;99.90;;;;;;5112935;27;20047;-42
2023/07/05 05:52:53;;;;;;;10.18;7.93;;;13.80;99.90;;;;;;5115367;27;20043;-45
2023/07/05 05:55:19;;;;;;;8.60;7.65;;;13.70;99.90;;;;;;5116289;27;20203;-44
2023/07/05 05:57:45;;;;;;;8.95;7.28;;;13.80;99.90;;;;;;5116259;27;20078;-42
2023/07/05 06:00:12;;;;;;;8.85;7.95;;;13.80;99.90;;;;;;5115487;27;20146;-43
2023/07/05 06:02:38;;;;;;;12.10;8.00;;;13.80;99.90;;;;;;5115638;27;20042;-43
2023/07/05 06:05:04;;;;;;;9.02;7.30;;;13.80;99.90;;;;;;5115596;27;20139;-43
2023/07/05 06:07:30;;;;;;;10.75;7.88;;;13.80;99.90;;;;;;5115794;27;20390;-44
2023/07/05 06:09:56;;;;;;;10.02;8.02;;;13.80;99.90;;;;;;5115896;27;20258;-43
2023/07/05 06:12:22;;;;;;;9.75;7.45;;;14.00;99.90;;;;;;5116335;27;20039;-42
2023/07/05 06:14:47;;;;;;;8.18;6.75;;;14.80;99.90;;;;;;5109706;27;20563;-44
2023/07/05 06:17:13;;;;;;;8.30;6.28;;;15.80;99.90;;;;;;5136017;27;20428;-48
2023/07/05 06:19:39;;;;;;;7.43;6.10;;;16.70;99.90;;;;;;5136875;27;20057;-43
2023/07/05 06:22:05;;;;;;;8.20;6.13;;;17.80;99.90;;;;;;5130048;27;20054;-42
2023/07/05 06:24:33;;;;;;;6.53;5.65;;;18.80;99.90;;;;;;5128300;27;20145;-44
2023/07/05 06:27:01;;;;;;;6.85;4.88;;;19.00;99.90;;;;;;5136516;27;20039;-44
2023/07/05 06:29:26;;;;;;;7.65;5.13;;;19.00;99.90;;;;;;5122264;27;20050;-43
2023/07/05 06:31:52;;;;;;;8.43;4.70;;;18.70;99.90;;;;;;5106806;27;20054;-43
2023/07/05 06:34:18;;;;;;;6.13;4.30;;;18.00;99.90;;;;;;5086142;27;20085;-44
2023/07/05 06:36:44;;;;;;;8.15;4.65;;;18.10;99.90;;;;;;5102066;27;20042;-45
2023/07/05 06:39:09;;;;;;;7.45;4.68;;;18.20;99.90;;;;;;5104626;27;20134;-43
2023/07/05 06:41:35;;;;;;;4.60;4.10;;;17.40;99.90;;;;;;5107313;27;20401;-43
2023/07/05 06:44:01;;;;;;;5.13;3.97;;;16.70;99.90;;;;;;5104083;27;20054;-42
2023/07/05 06:46:27;;;;;;;8.52;3.70;;;16.80;99.90;;;;;;5089818;27;20446;-43
2023/07/05 06:48:53;;;;;;;6.72;4.18;;;17.30;99.90;;;;;;5111578;27;20047;-42
2023/07/05 06:51:18;;;;;;;6.18;4.32;;;17.00;99.90;;;;;;5112949;27;20043;-44
2023/07/05 06:53:44;;;;;;;6.50;4.97;;;16.40;99.90;;;;;;5111044;27;20812;-44
2023/07/05 06:56:10;;;;;;;6.70;4.50;;;15.90;99.90;;;;;;5085242;27;20387;-42
2023/07/05 06:58:36;;;;;;;10.43;5.50;;;15.50;99.90;;;;;;5080991;27;20402;-42
2023/07/05 07:01:03;;;;;;;7.53;4.80;;;15.50;99.90;;;;;;5087154;27;20103;-43
2023/07/05 07:03:29;;;;;;;7.93;5.35;;;15.20;99.90;;;;;;5111524;27;20086;-45
2023/07/05 07:05:57;;;;;;;7.90;5.32;;;15.10;99.90;;;;;;5089421;27;20474;-42
2023/07/05 07:08:28;;;;;;;6.93;4.78;;;14.80;99.90;;;;;;5111076;27;20039;-43
2023/07/05 07:10:54;;;;;;;8.73;5.03;;;14.60;99.90;;;;;;5109429;27;20634;-43
2023/07/05 07:13:19;;;;;;;5.55;3.78;;;14.40;99.90;;;;;;5112827;27;20129;-42
2023/07/05 07:15:45;;;;;;;5.72;3.25;;;14.20;99.90;;;;;;5111875;27;20088;-51
2023/07/05 07:18:11;;;;;;;5.78;3.17;;;14.00;99.90;;;;;;5111444;27;20075;-42
2023/07/05 07:20:38;;;;;;;5.00;2.65;;;13.60;99.90;;;;;;5082095;27;20421;-42
2023/07/05 07:23:04;;;;;;;5.93;1.90;;;13.20;99.90;;;;;;5108220;27;20196;-42
2023/07/05 07:25:30;;;;;;;5.25;1.95;;;12.80;99.90;;;;;;5106499;27;20134;-43
2023/07/05 07:27:56;;;;;;;8.55;2.70;;;12.40;99.90;;;;;;5107847;27;20050;-42
2023/07/05 07:30:21;;;;;;;2.97;1.67;;;12.20;99.90;;;;;;5109934;27;20043;-43
2023/07/05 07:32:47;;;;;;;8.43;1.50;;;12.10;99.90;;;;;;5095009;27;20054;-41
2023/07/05 07:35:14;;;;;;;2.78;1.80;;;11.90;99.90;;;;;;5098539;27;20446;-43
2023/07/05 07:37:40;;;;;;;5.88;2.42;;;11.90;99.90;;;;;;5100343;27;20051;-41
2023/07/05 07:40:07;;;;;;;3.05;1.95;;;11.90;99.90;;;;;;5095013;27;20377;-42
2023/07/05 07:42:33;;;;;;;5.65;2.10;;;12.00;99.90;;;;;;5081301;27;20051;-42
2023/07/05 07:45:00;;;;;;;3.58;1.35;;;12.00;99.90;;;;;;5099473;27;20042;-42
2023/07/05 07:47:25;;;;;;;5.13;1.23;;;11.90;99.90;;;;;;5110463;27;20116;-41
2023/07/05 07:49:51;;;;;;;3.35;1.20;;;11.80;99.90;;;;;;5112954;27;20566;-41
2023/07/05 07:52:20;;;;;;;3.53;1.20;;;11.80;99.90;;;;;;5100530;27;20084;-42
2023/07/05 07:54:46;;;;;;;4.57;1.77;;;11.80;99.90;;;;;;5112400;27;20586;-41
2023/07/05 07:57:11;;;;;;;6.78;1.70;;;11.90;99.90;;;;;;5111894;27;20103;-40
2023/07/05 07:59:41;;;;;;;4.28;1.88;;;11.90;99.90;;;;;;5108496;27;20043;-41
2023/07/05 08:02:13;;;;;;;3.92;1.88;;;11.80;99.90;;;;;;5086633;27;20144;-41
2023/07/05 08:04:44;;;;;;;4.32;1.65;;;11.70;99.90;;;;;;5093583;27;20064;-41
2023/07/05 08:07:10;;;;;;;5.45;1.88;;;11.70;99.90;;;;;;5106471;27;20103;-41
2023/07/05 08:09:36;;;;;;;4.25;1.50;;;11.60;99.90;;;;;;5108539;27;20052;-41
2023/07/05 08:12:02;;;;;;;4.47;1.45;;;11.60;99.90;;;;;;5095230;27;20075;-41
2023/07/05 08:14:28;;;;;;;5.57;1.58;;;11.60;99.90;;;;;;5097413;27;20497;-41
2023/07/05 08:16:54;;;;;;;4.25;1.63;;;11.50;99.90;;;;;;5098851;27;20497;-40
2023/07/05 08:19:20;;;;;;;6.57;2.53;;;11.60;99.90;;;;;;5103783;27;20047;-43
2023/07/05 08:21:47;;;;;;;5.68;2.50;;;11.60;99.90;;;;;;5111633;27;20047;-42
2023/07/05 08:24:14;;;;;;;7.35;3.25;;;11.60;99.90;;;;;;5108970;27;20066;-45
2023/07/05 08:26:40;;;;;;;10.75;2.65;;;11.60;99.90;;;;;;5076741;28;20188;-43
2023/07/05 08:29:08;;;;;;;9.70;2.80;;;11.70;99.90;;;;;;5093003;27;20116;-43
2023/07/05 08:31:34;;;;;;;8.70;3.10;;;11.70;99.90;;;;;;5097906;27;20119;-42
2023/07/05 08:34:00;;;;;;;10.23;3.45;;;11.70;99.90;;;;;;5091883;27;20501;-43
2023/07/05 08:36:37;;;;;;;16.77;5.68;;;11.80;99.90;;;;;;5069854;27;20051;-43
2023/07/05 08:39:05;;;;;;;18.33;4.78;;;12.00;99.90;;;;;;5103474;27;20043;-42
2023/07/05 08:41:43;;;;;;;18.05;5.80;;;12.10;99.90;;;;;;5077847;27;20046;-43
2023/07/05 08:44:30;;;;;;;14.55;4.47;;;12.30;99.90;;;;;;5105613;27;20122;-43
2023/07/05 08:46:55;;;;;;;9.75;2.47;;;12.60;99.90;;;;;;5115732;27;20086;-43
2023/07/05 08:49:31;;;;;;;10.15;1.95;;;12.80;99.90;;;;;;5117077;27;20463;-43
2023/07/05 08:51:58;;;;;;;8.10;2.25;;;13.10;99.90;;;;;;5118746;27;20058;-43
2023/07/05 08:54:31;;;;;;;11.57;2.35;;;13.20;99.90;;;;;;5117499;27;20507;-41
2023/07/05 08:57:06;;;;;;;9.73;1.75;;;13.30;99.90;;;;;;5118452;27;20050;-42
2023/07/05 08:59:49;;;;;;;7.72;1.33;;;13.30;99.90;;;;;;5107462;27;20078;-41
2023/07/05 09:02:19;;;;;;;16.65;2.15;;;13.30;99.90;;;;;;5118111;27;20053;-41
2023/07/05 09:04:47;;;;;;;4.85;1.30;;;13.30;99.90;;;;;;5098579;27;20043;-41
2023/07/05 09:07:41;;;;;;;6.45;1.38;;;13.30;99.90;;;;;;5099763;27;20199;-41
2023/07/05 09:10:37;;;;;;;7.53;1.02;;;13.30;99.90;;;;;;5116589;27;20101;-41
2023/07/05 09:13:12;;;;;;;13.07;2.47;;;13.50;99.90;;;;;;5099175;27;20059;-43
2023/07/05 09:15:45;;;;;;;7.45;1.75;;;13.50;99.90;;;;;;5123447;27;20053;-43
2023/07/05 09:18:17;;;;;;;5.35;1.13;;;13.90;99.90;;;;;;5127071;27;20046;-43
2023/07/05 09:20:51;;;;;;;6.88;1.80;;;14.30;99.90;;;;;;5107821;27;20047;-42
2023/07/05 09:23:24;;;;;;;8.20;1.23;;;14.60;99.90;;;;;;5103778;27;20406;-41
2023/07/05 09:25:56;;;;;;;4.25;0.85;;;14.70;99.90;;;;;;5117472;27;20050;-41
2023/07/05 09:28:27;;;;;;;6.75;0.95;;;14.60;99.90;;;;;;5117967;27;20040;-40
2023/07/05 09:30:53;;;;;;;7.97;1.00;;;14.40;99.90;;;;;;5116220;27;20381;-41
2023/07/05 09:33:36;;;;;;;4.97;0.80;;;14.20;99.90;;;;;;5117264;27;20327;-41
2023/07/05 09:36:10;;;;;;;4.20;1.10;;;14.10;99.90;;;;;;5102997;27;20047;-41
2023/07/05 09:38:37;;;;;;;;;;;14.30;99.90;;;;;;5111173;27;20039;-41
2023/07/05 09:41:17;;;;;;;5.65;1.05;;;14.80;99.90;;;;;;5091953;27;20309;-42
2023/07/05 09:43:43;;;;;;;5.53;1.27;;;15.30;99.90;;;;;;5108897;27;20950;-41
2023/07/05 09:46:34;;;;;;;7.20;1.30;;;15.70;99.90;;;;;;5110897;27;20039;-41
2023/07/05 09:49:00;;;;;;;10.15;1.27;;;16.00;99.90;;;;;;5088546;27;20139;-43
2023/07/05 09:51:27;;;;;;;5.82;1.30;;;16.40;99.90;;;;;;5083164;27;20047;-43
2023/07/05 09:53:59;;;;;;;4.47;1.35;;;16.80;99.90;;;;;;5114801;27;20050;-41
2023/07/05 09:56:28;;;;;;;9.40;1.70;;;17.10;99.90;;;;;;5113498;27;20035;-41
2023/07/05 09:59:07;;;;;;;6.40;1.27;;;17.20;99.90;;;;;;5111405;27;20160;-44
2023/07/05 10:01:36;;;;;;;5.28;1.30;;;17.20;99.90;;;;;;5114298;27;20031;-41
2023/07/05 10:04:04;;;;;;;6.93;1.25;;;17.00;99.90;;;;;;5115258;27;20762;-43
2023/07/05 10:06:30;;;;;;;7.50;1.25;;;17.10;99.90;;;;;;5115017;27;20068;-42
2023/07/05 10:09:04;;;;;;;4.53;1.67;;;17.30;99.90;;;;;;5114585;27;20039;-42
2023/07/05 10:11:33;;;;;;;8.15;1.65;;;17.60;99.90;;;;;;5115052;27;20073;-42
2023/07/05 10:14:10;;;;;;;6.35;2.08;;;18.00;99.90;;;;;;5112530;27;20537;-41
2023/07/05 10:16:51;;;;;;;5.13;1.60;;;18.00;99.90;;;;;;5115527;27;20039;-42
2023/07/05 10:19:41;;;;;;;6.65;1.35;;;17.80;99.90;;;;;;5094123;27;20055;-42
2023/07/05 10:22:14;;;;;;;6.18;1.73;;;17.80;99.90;;;;;;5109619;27;20405;-42
2023/07/05 10:24:43;;;;;;;4.65;1.35;;;18.10;99.90;;;;;;5105811;27;20042;-42
2023/07/05 10:27:28;;;;;;;7.63;1.75;;;18.20;99.90;;;;;;5104493;27;20147;-42
2023/07/05 10:30:15;;;;;;;5.50;1.50;;;18.10;99.90;;;;;;5115663;27;20045;-42
2023/07/05 10:32:43;;;;;;;6.68;1.73;;;17.90;99.90;;;;;;5114652;27;20407;-42
2023/07/05 10:35:21;;;;;;;12.07;2.83;;;17.80;99.90;;;;;;5089608;27;20050;-43
2023/07/05 10:37:47;;;;;;;5.57;1.60;;;17.80;99.90;;;;;;5112014;27;20039;-42
2023/07/05 10:40:12;;;;;;;10.10;1.80;;;17.60;99.90;;;;;;5115162;27;20031;-44
2023/07/05 10:42:49;;;;;;;8.23;2.28;;;17.70;99.90;;;;;;5115687;27;20042;-41
2023/07/05 10:45:17;;;;;;;6.32;1.75;;;17.70;99.90;;;;;;5101426;27;20039;-46
2023/07/05 10:47:47;;;;;;;5.90;1.27;;;17.70;99.90;;;;;;5103404;27;20121;-41
2023/07/05 10:50:14;;;;;;;7.10;1.67;;;17.90;99.90;;;;;;5104842;27;20068;-42
2023/07/05 10:52:50;;;;;;;10.73;2.08;;;17.90;99.90;;;;;;5084691;27;20046;-43
2023/07/05 10:55:20;;;;;;;9.70;2.22;;;18.20;99.90;;;;;;5101760;27;20036;-42
2023/07/05 10:57:58;;;;;;;6.63;1.63;;;18.50;99.90;;;;;;5089170;27;20172;-42
2023/07/05 11:00:44;;;;;;;7.43;2.33;;;18.70;99.90;;;;;;5100837;27;20461;-41
2023/07/05 11:03:18;;;;;;;5.45;1.40;;;18.90;99.90;;;;;;5100993;27;20035;-42
2023/07/05 11:05:47;;;;;;;8.77;1.63;;;18.80;99.90;;;;;;5108257;27;20087;-43
2023/07/05 11:08:29;;;;;;;9.80;2.45;;;18.90;99.90;;;;;;5081607;27;20055;-41
2023/07/05 11:10:58;;;;;;;8.93;2.30;;;18.60;99.90;;;;;;5081533;27;20529;-42
2023/07/05 11:13:27;;;;;;;7.95;2.15;;;18.50;99.90;;;;;;5105557;27;20146;-41
2023/07/05 11:15:53;;;;;;;9.50;2.88;;;18.40;99.90;;;;;;5109479;27;20041;-42
2023/07/05 11:18:21;;;;;;;9.15;3.03;;;18.10;99.90;;;;;;5116189;27;20043;-42
2023/07/05 11:20:56;;;;;;;12.52;3.60;;;17.80;99.90;;;;;;5113137;27;20034;-42
2023/07/05 11:23:46;;;;;;;8.35;3.13;;;17.80;99.90;;;;;;5115107;27;20035;-43
2023/07/05 11:26:45;;;;;;;13.05;3.28;;;17.90;99.90;;;;;;5111259;27;20039;-42
2023/07/05 11:29:30;;;;;;;13.10;3.38;;;18.10;99.90;;;;;;5088353;27;20049;-41
2023/07/05 11:31:59;;;;;;;20.65;5.38;;;18.00;99.90;;;;;;5114371;27;20039;-44
2023/07/05 11:34:25;;;;;;;19.85;4.47;;;17.90;99.90;;;;;;5100294;27;20035;-42
2023/07/05 11:36:53;;;;;;;13.90;4.20;;;17.30;99.90;;;;;;5085424;27;20370;-45
2023/07/05 11:39:38;;;;;;;11.25;3.88;;;16.40;99.90;;;;;;5084612;27;20047;-43
2023/07/05 11:42:30;;;;;;;9.48;2.85;;;15.90;99.90;;;;;;5101346;27;20046;-43
2023/07/05 11:44:56;;;;;;;12.65;2.83;;;15.30;99.90;;;;;;5099849;27;20086;-41
2023/07/05 11:47:25;;;;;;;17.15;3.67;;;14.90;99.90;;;;;;5086018;27;20426;-44
2023/07/05 11:49:52;;;;;;;12.57;2.85;;;14.70;99.90;;;;;;5099604;27;20306;-41
2023/07/05 11:52:31;;;;;;;8.45;3.40;;;14.50;99.90;;;;;;5105579;27;20067;-41
2023/07/05 11:55:03;;;;;;;13.20;3.97;;;14.30;99.90;;;;;;5101476;27;20050;-41
2023/07/05 11:57:40;;;;;;;14.52;4.35;;;14.10;99.90;;;;;;5100278;27;20071;-41
2023/07/05 12:00:09;;;;;;;10.05;4.10;;;14.00;99.90;;;;;;5089748;27;20841;-40
2023/07/05 12:02:59;;;;;;;12.82;4.05;;;13.90;99.90;;;;;;5108027;27;20770;-41
2023/07/05 12:05:28;;;;;;;11.50;3.45;;;13.80;99.90;;;;;;5112148;27;20039;-40
2023/07/05 12:08:20;;;;;;;12.45;3.45;;;13.70;99.90;;;;;;5110646;27;20066;-42
2023/07/05 12:11:00;;;;;;;6.60;2.50;;;13.50;99.90;;;;;;5110895;27;20074;-42
2023/07/05 12:13:32;;;;;;;9.73;2.72;;;13.30;99.90;;;;;;5093214;27;20042;-41
2023/07/05 12:15:59;;;;;;;12.13;3.17;;;13.40;99.90;;;;;;5089203;28;20123;-42
2023/07/05 12:18:27;;;;;;;9.52;3.22;;;13.30;99.90;;;;;;5091559;27;20493;-40
2023/07/05 12:20:54;;;;;;;10.68;3.03;;;13.40;99.90;;;;;;5109841;27;20066;-41
2023/07/05 12:23:22;;;;;;;10.05;2.40;;;13.40;99.90;;;;;;5094975;27;20058;-42
2023/07/05 12:25:51;;;;;;;5.60;2.78;;;13.50;99.90;;;;;;5110738;27;20086;-42
2023/07/05 12:28:21;;;;;;;9.63;2.92;;;13.60;99.90;;;;;;5111995;27;20520;-40
2023/07/05 12:30:48;;;;;;;8.95;2.88;;;13.70;99.90;;;;;;5091455;28;20050;-40
2023/07/05 12:33:21;;;;;;;10.63;3.33;;;13.70;99.90;;;;;;5112860;27;20267;-40
2023/07/05 12:36:12;;;;;;;8.55;2.72;;;13.80;99.90;;;;;;5107172;27;20043;-43
2023/07/05 12:38:41;;;;;;;6.57;2.20;;;13.90;99.90;;;;;;5106276;27;20054;-42
2023/07/05 12:41:14;;;;;;;10.70;2.72;;;14.00;99.90;;;;;;5111524;27;20569;-41
2023/07/05 12:43:39;;;;;;;10.50;3.58;;;14.10;99.90;;;;;;5090683;28;20497;-42
2023/07/05 12:46:07;;;;;;;13.40;3.03;;;14.10;99.90;;;;;;5111641;27;20104;-43
2023/07/05 12:48:33;;;;;;;13.85;3.47;;;14.00;99.90;;;;;;5091048;28;20080;-41
2023/07/05 12:51:22;;;;;;;12.98;3.28;;;14.00;99.90;;;;;;5093181;27;20050;-43